Flugplatz Nuremberg

Bericht für EDDN

vom 15.07. um 17:50 UTC

variable Windrichtung mit 2 kt

Sichtweite 10 km oder mehr

gering bewölkt in 2200 ft

aufgebrochene Bewölkung in 4900 ft

Temperatur 17.0°C

Taupunkt 14.0°C

Luftfeuchtigkeit 82%

Luftdruck 1014 hPa

keine wesentliche Wetteränderung innerhalb den nächsten 2 Stunden zu erwarten

EDDN 151750Z VRB02KT 9999 FEW022 BKN049 17/14 Q1014 NOSIG

Prognose für EDDN

vom 15.07. um 17:00 UTC

Zwischen 18:00 UTC und 18:00 UTC

Wind 5 kt aus 260°

Sichtweite 10 km oder mehr

aufgelockert bewölkt in 3000 ft


Am 16.07. zwischen 09:00 UTC und 12:00 UTC zeitweise

Regen


Am 16.07. zwischen 12:00 UTC und 18:00 UTC zeitweise

Sichtweite 4000 m

Regen

Sprühregen

aufgebrochene Bewölkung in 800 ft

bedeckt in 1500 ft

TAF EDDN 151700Z 1518/1618 26005KT 9999 SCT030 TEMPO 1609/1612 RA TEMPO 1612/1618 4000 RADZ BKN008 OVC015
Impressum